createdAt,value
2019-03-25T00:01:21.742Z,17.35
2019-03-25T00:03:50.926Z,18.40
2019-03-25T00:06:19.686Z,14.20
2019-03-25T00:08:48.473Z,16.35
2019-03-25T00:11:17.253Z,17.30
2019-03-25T00:13:46.027Z,16.82
2019-03-25T00:16:14.867Z,20.40
2019-03-25T00:18:43.970Z,20.52
2019-03-25T00:21:12.819Z,20.93
2019-03-25T00:23:41.647Z,15.98
2019-03-25T00:26:10.739Z,14.80
2019-03-25T00:28:39.530Z,16.87
2019-03-25T00:31:08.290Z,16.45
2019-03-25T00:33:37.414Z,23.73
2019-03-25T00:36:06.391Z,20.17
2019-03-25T00:38:35.148Z,17.87
2019-03-25T00:41:04.019Z,14.20
2019-03-25T00:43:32.769Z,17.60
2019-03-25T00:46:01.881Z,18.57
2019-03-25T00:48:31.835Z,21.42
2019-03-25T00:51:00.627Z,17.65
2019-03-25T00:53:29.387Z,16.62
2019-03-25T00:55:58.172Z,19.37
2019-03-25T00:58:26.960Z,16.35
2019-03-25T01:00:56.052Z,17.60
2019-03-25T01:03:24.853Z,18.12
2019-03-25T01:05:53.630Z,19.23
2019-03-25T01:08:22.465Z,22.58
2019-03-25T01:10:51.283Z,19.87
2019-03-25T01:13:20.399Z,19.82
2019-03-25T01:15:49.168Z,21.82
2019-03-25T01:18:17.973Z,17.75
2019-03-25T01:20:46.739Z,18.25
2019-03-25T01:23:15.504Z,19.32
2019-03-25T01:25:44.302Z,18.75
2019-03-25T01:28:13.070Z,21.42
2019-03-25T01:30:41.852Z,17.15
2019-03-25T01:33:10.629Z,19.12
2019-03-25T01:35:39.466Z,19.23
2019-03-25T01:38:08.228Z,17.05
2019-03-25T01:40:37.402Z,17.23
2019-03-25T01:43:06.170Z,19.32
2019-03-25T01:45:35.009Z,18.07
2019-03-25T01:48:03.803Z,24.80
2019-03-25T01:50:32.643Z,21.48
2019-03-25T01:53:01.404Z,18.23
2019-03-25T01:55:30.188Z,22.50
2019-03-25T01:57:59.236Z,18.85
2019-03-25T02:00:28.009Z,19.02
2019-03-25T02:02:56.823Z,23.20
2019-03-25T02:05:25.585Z,18.57
2019-03-25T02:07:54.357Z,19.52
2019-03-25T02:10:23.173Z,16.65
2019-03-25T02:12:51.972Z,27.95
2019-03-25T02:15:21.183Z,21.48
2019-03-25T02:17:49.980Z,21.17
2019-03-25T02:20:26.205Z,17.15
2019-03-25T02:22:50.120Z,18.60
2019-03-25T02:25:25.191Z,18.95
2019-03-25T02:27:49.744Z,17.77
2019-03-25T02:30:18.501Z,20.35
2019-03-25T02:32:47.297Z,19.57
2019-03-25T02:35:16.062Z,23.32
2019-03-25T02:37:44.829Z,17.90
2019-03-25T02:40:13.703Z,18.17
2019-03-25T02:42:42.539Z,23.95
2019-03-25T02:45:11.384Z,19.80
2019-03-25T02:47:40.241Z,18.48
2019-03-25T02:50:09.237Z,18.87
2019-03-25T02:52:38.080Z,16.17
2019-03-25T02:55:07.884Z,21.62
2019-03-25T02:57:36.701Z,20.40
2019-03-25T03:00:07.540Z,21.12
2019-03-25T03:02:36.414Z,18.45
2019-03-25T03:05:06.218Z,16.05
2019-03-25T03:07:35.000Z,21.07
2019-03-25T03:10:06.047Z,19.42
2019-03-25T03:12:35.234Z,17.70
2019-03-25T03:15:06.471Z,16.67
2019-03-25T03:17:35.673Z,24.37
2019-03-25T03:20:06.882Z,22.50
2019-03-25T03:22:35.728Z,22.77
2019-03-25T03:25:04.517Z,18.50
2019-03-25T03:27:33.291Z,19.80
2019-03-25T03:30:02.061Z,24.40
2019-03-25T03:32:30.937Z,17.90
2019-03-25T03:34:59.784Z,19.85
2019-03-25T03:37:28.614Z,20.12
2019-03-25T03:39:57.405Z,21.95
2019-03-25T03:42:26.245Z,20.88
2019-03-25T03:44:55.008Z,19.23
2019-03-25T03:47:24.110Z,23.15
2019-03-25T03:49:52.953Z,21.20
2019-03-25T03:52:21.799Z,20.08
2019-03-25T03:54:50.996Z,24.32
2019-03-25T03:57:19.772Z,22.70
2019-03-25T03:59:48.615Z,16.67
2019-03-25T04:02:17.494Z,20.57
2019-03-25T04:04:46.332Z,25.90
2019-03-25T04:07:15.179Z,19.23
2019-03-25T04:09:43.971Z,20.12
2019-03-25T04:12:12.757Z,22.58
2019-03-25T04:14:41.588Z,21.17
2019-03-25T04:17:10.449Z,22.15
2019-03-25T04:19:39.231Z,17.67
2019-03-25T04:22:08.085Z,21.37
2019-03-25T04:24:36.890Z,19.50
2019-03-25T04:27:05.728Z,19.60
2019-03-25T04:29:34.494Z,21.70
2019-03-25T04:32:06.033Z,18.40
2019-03-25T04:34:33.767Z,24.50
2019-03-25T04:37:02.534Z,17.05
2019-03-25T04:39:31.337Z,20.15
2019-03-25T04:42:00.161Z,20.92
2019-03-25T04:44:28.932Z,17.15
2019-03-25T04:46:58.052Z,23.30
2019-03-25T04:49:26.896Z,20.95
2019-03-25T04:51:55.646Z,17.50
2019-03-25T04:54:24.809Z,18.25
2019-03-25T04:56:53.837Z,21.65
2019-03-25T04:59:22.612Z,21.37
2019-03-25T05:01:51.484Z,17.32
2019-03-25T05:04:20.590Z,16.93
2019-03-25T05:06:49.370Z,20.85
2019-03-25T05:09:18.574Z,14.80
2019-03-25T05:11:47.783Z,18.95
2019-03-25T05:14:16.545Z,16.52
2019-03-25T05:16:45.420Z,13.85
2019-03-25T05:19:14.258Z,18.30
2019-03-25T05:21:43.033Z,16.25
2019-03-25T05:24:11.852Z,20.08
2019-03-25T05:26:50.692Z,18.87
2019-03-25T05:29:11.159Z,16.82
2019-03-25T05:31:39.942Z,19.25
2019-03-25T05:34:08.713Z,14.68
2019-03-25T05:36:37.474Z,16.42
2019-03-25T05:39:08.407Z,13.35
2019-03-25T05:41:37.217Z,19.62
2019-03-25T05:44:06.022Z,18.85
2019-03-25T05:46:34.896Z,19.42
2019-03-25T05:49:03.753Z,19.62
2019-03-25T05:51:32.820Z,18.85
2019-03-25T05:54:01.623Z,20.32
2019-03-25T05:56:30.405Z,19.52
2019-03-25T05:58:59.509Z,21.85
2019-03-25T06:01:28.557Z,17.45
2019-03-25T06:03:57.328Z,25.55
2019-03-25T06:06:26.101Z,18.77
2019-03-25T06:08:54.973Z,19.07
2019-03-25T06:11:23.759Z,17.75
2019-03-25T06:13:52.529Z,21.93
2019-03-25T06:16:21.422Z,26.00
2019-03-25T06:18:50.180Z,22.98
2019-03-25T06:21:18.936Z,19.73
2019-03-25T06:23:48.113Z,21.85
2019-03-25T06:26:16.881Z,22.10
2019-03-25T06:28:45.655Z,27.13
2019-03-25T06:31:14.460Z,22.42
2019-03-25T06:33:43.212Z,20.88
2019-03-25T06:36:11.984Z,19.95
2019-03-25T06:38:41.158Z,20.35
2019-03-25T06:41:09.933Z,22.45
2019-03-25T06:43:38.689Z,18.37
2019-03-25T06:46:07.837Z,24.10
2019-03-25T06:48:36.601Z,25.50
2019-03-25T06:51:05.360Z,22.05
2019-03-25T06:53:34.188Z,27.48
2019-03-25T06:56:02.948Z,20.88
2019-03-25T06:58:31.710Z,18.55
2019-03-25T07:01:00.575Z,22.25
2019-03-25T07:03:29.919Z,19.20
2019-03-25T07:05:58.810Z,24.65
2019-03-25T07:08:27.972Z,20.57
2019-03-25T07:10:57.068Z,20.55
2019-03-25T07:13:25.833Z,24.05
2019-03-25T07:15:54.629Z,23.98
2019-03-25T07:18:23.474Z,23.15
2019-03-25T07:20:52.244Z,17.67
2019-03-25T07:23:21.135Z,16.67
2019-03-25T07:25:49.960Z,23.65
2019-03-25T07:28:18.729Z,21.55
2019-03-25T07:30:47.523Z,25.40
2019-03-25T07:33:16.280Z,21.25
2019-03-25T07:35:45.055Z,25.60
2019-03-25T07:38:13.935Z,21.95
2019-03-25T07:40:43.060Z,25.92
2019-03-25T07:43:11.839Z,20.25
2019-03-25T07:45:40.709Z,31.90
2019-03-25T07:48:09.579Z,33.08
2019-03-25T07:50:38.734Z,27.07
2019-03-25T07:53:07.590Z,20.02
2019-03-25T07:55:36.369Z,23.55
2019-03-25T07:58:05.269Z,26.70
2019-03-25T08:00:34.411Z,22.85
2019-03-25T08:03:03.344Z,30.02
2019-03-25T08:05:32.178Z,19.87
2019-03-25T08:08:01.082Z,24.55
2019-03-25T08:10:33.149Z,20.35
2019-03-25T08:13:02.153Z,29.97
2019-03-25T08:15:31.184Z,21.30
2019-03-25T08:18:00.198Z,32.35
2019-03-25T08:20:28.972Z,23.60
2019-03-25T08:22:57.775Z,27.30
2019-03-25T08:25:26.544Z,23.77
2019-03-25T08:28:00.045Z,21.42
2019-03-25T08:30:25.817Z,23.65
2019-03-25T08:32:54.587Z,26.25
2019-03-25T08:35:23.454Z,25.20
2019-03-25T08:37:52.311Z,27.22
2019-03-25T08:40:21.177Z,16.95
2019-03-25T08:42:50.039Z,19.95
2019-03-25T08:45:18.855Z,25.68
2019-03-25T08:47:47.612Z,25.75
2019-03-25T08:50:16.372Z,25.88
2019-03-25T08:52:45.168Z,20.57
2019-03-25T08:55:13.942Z,20.17
2019-03-25T08:57:42.708Z,13.35
2019-03-25T09:00:12.525Z,11.60
2019-03-25T09:02:41.281Z,8.68
2019-03-25T09:05:10.053Z,6.47
2019-03-25T09:07:39.190Z,8.75
2019-03-25T09:10:08.023Z,8.80
2019-03-25T09:12:37.065Z,5.87
2019-03-25T09:15:10.083Z,8.63
2019-03-25T09:17:38.909Z,9.55
2019-03-25T09:20:07.904Z,12.90
2019-03-25T09:22:36.787Z,9.83
2019-03-25T09:25:09.728Z,13.93
2019-03-25T09:30:07.520Z,11.45
2019-03-25T09:32:36.626Z,12.98
2019-03-25T09:35:07.460Z,15.58
2019-03-25T09:37:36.516Z,15.58
2019-03-25T09:40:08.387Z,16.52
2019-03-25T09:42:37.290Z,21.60
2019-03-25T09:45:08.888Z,17.25
2019-03-25T09:47:38.057Z,15.90
2019-03-25T09:50:07.330Z,20.05
2019-03-25T09:52:38.786Z,21.00
2019-03-25T09:55:08.077Z,32.08
2019-03-25T09:57:36.840Z,18.62
2019-03-25T10:00:11.002Z,20.60
2019-03-25T10:02:39.843Z,27.13
2019-03-25T10:05:08.764Z,22.25
2019-03-25T10:07:37.659Z,17.42
2019-03-25T10:10:08.235Z,17.10
2019-03-25T10:12:37.427Z,17.48
2019-03-25T10:15:08.038Z,21.95
2019-03-25T10:17:36.834Z,25.55
2019-03-25T10:20:07.256Z,19.73
2019-03-25T10:22:36.113Z,20.90
2019-03-25T10:25:08.287Z,20.95
2019-03-25T10:27:37.133Z,19.52
2019-03-25T10:30:10.561Z,17.95
2019-03-25T10:32:39.335Z,21.82
2019-03-25T10:35:08.528Z,19.32
2019-03-25T10:37:37.437Z,17.80
2019-03-25T10:40:06.894Z,19.45
2019-03-25T10:42:36.022Z,15.40
2019-03-25T10:45:10.176Z,22.52
2019-03-25T10:47:38.983Z,18.10
2019-03-25T10:50:07.759Z,18.80
2019-03-25T10:52:36.647Z,16.90
2019-03-25T10:55:07.784Z,20.88
2019-03-25T10:57:36.536Z,16.12
2019-03-25T11:00:08.838Z,17.75
2019-03-25T11:02:37.603Z,16.80
2019-03-25T11:05:06.947Z,13.05
2019-03-25T11:07:35.937Z,17.92
2019-03-25T11:10:09.436Z,15.23
2019-03-25T11:15:08.388Z,19.60
2019-03-25T11:17:37.818Z,19.35
2019-03-25T11:20:09.634Z,15.00
2019-03-25T11:22:38.430Z,16.48
2019-03-25T11:25:07.213Z,15.23
2019-03-25T11:27:36.051Z,10.18
2019-03-25T11:30:07.335Z,15.00
2019-03-25T11:32:36.382Z,12.35
2019-03-25T11:35:07.794Z,10.68
2019-03-25T11:37:36.586Z,11.88
2019-03-25T11:40:07.328Z,15.85
2019-03-25T11:42:36.177Z,14.63
2019-03-25T11:45:09.026Z,13.83
2019-03-25T11:47:37.866Z,17.53
2019-03-25T11:50:10.203Z,8.30
2019-03-25T11:52:39.395Z,15.95
2019-03-25T11:55:08.192Z,10.58
2019-03-25T11:57:37.032Z,10.63
2019-03-25T12:00:08.532Z,13.78
2019-03-25T12:02:37.734Z,14.85
2019-03-25T12:05:07.756Z,15.93
2019-03-25T12:07:36.855Z,15.40
2019-03-25T12:10:06.350Z,15.50
2019-03-25T12:12:35.184Z,16.87
2019-03-25T12:15:06.444Z,14.07
2019-03-25T12:17:35.208Z,14.33
2019-03-25T12:20:06.691Z,14.90
2019-03-25T12:22:35.489Z,13.88
2019-03-25T12:25:06.868Z,15.83
2019-03-25T12:27:35.723Z,12.05
2019-03-25T12:30:06.869Z,19.40
2019-03-25T12:32:35.660Z,17.17
2019-03-25T12:35:06.548Z,21.45
2019-03-25T12:37:35.645Z,18.75
2019-03-25T12:40:07.735Z,16.07
2019-03-25T12:42:35.776Z,17.67
2019-03-25T12:45:06.689Z,18.82
2019-03-25T12:47:35.553Z,17.75
2019-03-25T12:50:06.875Z,16.77
2019-03-25T12:52:35.681Z,14.68
2019-03-25T12:55:05.407Z,13.20
2019-03-25T12:57:34.263Z,13.85
2019-03-25T13:00:03.741Z,16.95
2019-03-25T13:02:32.536Z,17.17
2019-03-25T13:05:01.389Z,16.25
2019-03-25T13:07:30.285Z,12.88
2019-03-25T13:09:59.146Z,12.82
2019-03-25T13:12:27.998Z,12.50
2019-03-25T13:14:56.805Z,13.93
2019-03-25T13:17:25.597Z,14.15
2019-03-25T13:19:54.367Z,13.28
2019-03-25T13:22:23.245Z,18.10
2019-03-25T13:24:52.021Z,15.38
2019-03-25T13:27:20.865Z,15.28
2019-03-25T13:29:52.705Z,19.95
2019-03-25T13:32:20.146Z,14.25
2019-03-25T13:34:48.952Z,14.33
2019-03-25T13:37:18.072Z,16.82
2019-03-25T13:39:46.842Z,19.40
2019-03-25T13:42:15.622Z,16.97
2019-03-25T13:44:44.428Z,17.60
2019-03-25T13:47:13.291Z,19.82
2019-03-25T13:49:42.150Z,20.45
2019-03-25T13:52:11.007Z,16.27
2019-03-25T13:54:39.854Z,21.25
2019-03-25T13:57:08.634Z,14.65
2019-03-25T13:59:37.430Z,11.05
2019-03-25T14:02:06.272Z,10.35
2019-03-25T14:04:35.065Z,13.75
2019-03-25T14:07:04.158Z,10.23
2019-03-25T14:09:32.991Z,10.78
2019-03-25T14:12:01.765Z,10.72
2019-03-25T14:14:30.586Z,13.75
2019-03-25T14:16:59.445Z,11.30
2019-03-25T14:19:29.291Z,12.98
2019-03-25T14:21:58.454Z,11.97
2019-03-25T14:24:27.313Z,11.45
2019-03-25T14:26:56.159Z,16.30
2019-03-25T14:29:24.954Z,12.70
2019-03-25T14:31:53.730Z,15.80
2019-03-25T14:34:22.547Z,15.68
2019-03-25T14:36:51.361Z,13.95
2019-03-25T14:39:20.201Z,18.30
2019-03-25T14:41:49.079Z,15.58
2019-03-25T14:44:17.869Z,18.92
2019-03-25T14:46:49.032Z,17.12
2019-03-25T14:49:17.894Z,19.52
2019-03-25T14:51:46.762Z,19.37
2019-03-25T14:54:15.539Z,19.20
2019-03-25T14:56:44.316Z,18.90
2019-03-25T14:59:13.126Z,19.75
2019-03-25T15:01:41.980Z,26.82
2019-03-25T15:04:10.815Z,17.85
2019-03-25T15:06:39.616Z,17.10
2019-03-25T15:09:08.453Z,14.65
2019-03-25T15:11:37.230Z,22.90
2019-03-25T15:14:06.034Z,17.37
2019-03-25T15:16:34.813Z,19.77
2019-03-25T15:19:03.661Z,17.73
2019-03-25T15:21:32.872Z,16.17
2019-03-25T15:24:01.659Z,17.55
2019-03-25T15:26:30.524Z,20.95
2019-03-25T15:28:59.356Z,21.50
2019-03-25T15:31:28.159Z,22.58
2019-03-25T15:33:58.275Z,19.87
2019-03-25T15:36:27.086Z,24.63
2019-03-25T15:38:56.141Z,22.00
2019-03-25T15:41:24.934Z,17.60
2019-03-25T15:43:53.747Z,22.02
2019-03-25T15:46:22.546Z,19.00
2019-03-25T15:48:51.604Z,18.65
2019-03-25T15:51:20.403Z,18.20
2019-03-25T15:53:49.167Z,25.05
2019-03-25T15:56:17.943Z,20.63
2019-03-25T15:58:46.742Z,18.05
2019-03-25T16:01:15.522Z,19.53
2019-03-25T16:03:44.304Z,15.32
2019-03-25T16:06:13.099Z,18.77
2019-03-25T16:08:41.956Z,23.10
2019-03-25T16:11:10.726Z,17.70
2019-03-25T16:13:39.607Z,21.25
2019-03-25T16:16:08.402Z,21.95
2019-03-25T16:18:40.720Z,19.32
2019-03-25T16:21:09.870Z,23.73
2019-03-25T16:23:38.722Z,21.42
2019-03-25T16:26:07.535Z,16.52
2019-03-25T16:28:36.404Z,15.35
2019-03-25T16:31:06.165Z,13.75
2019-03-25T16:33:34.939Z,16.62
2019-03-25T16:36:03.760Z,17.02
2019-03-25T16:38:32.542Z,17.98
2019-03-25T16:41:01.319Z,17.48
2019-03-25T16:43:30.112Z,18.05
2019-03-25T16:45:59.220Z,23.07
2019-03-25T16:48:28.070Z,22.62
2019-03-25T16:50:56.881Z,21.00
2019-03-25T16:53:25.937Z,19.95
2019-03-25T16:55:55.074Z,19.52
2019-03-25T16:58:23.884Z,25.68
2019-03-25T17:00:52.738Z,20.75
2019-03-25T17:03:21.578Z,21.48
2019-03-25T17:05:50.396Z,25.75
2019-03-25T17:08:19.309Z,24.05
2019-03-25T17:10:48.364Z,23.32
2019-03-25T17:13:17.656Z,15.80
2019-03-25T17:15:46.484Z,24.60
2019-03-25T17:18:15.272Z,23.12
2019-03-25T17:20:44.082Z,21.15
2019-03-25T17:23:12.852Z,26.02
2019-03-25T17:25:52.516Z,25.10
2019-03-25T17:28:12.158Z,27.45
2019-03-25T17:30:40.931Z,30.05
2019-03-25T17:33:09.715Z,23.10
2019-03-25T17:35:38.603Z,22.95
2019-03-25T17:38:07.393Z,22.75
2019-03-25T17:40:36.261Z,20.97
2019-03-25T17:43:05.232Z,21.57
2019-03-25T17:45:34.027Z,22.90
2019-03-25T17:48:02.883Z,27.95
2019-03-25T17:50:31.712Z,24.02
2019-03-25T17:53:00.552Z,24.20
2019-03-25T17:55:29.332Z,20.27
2019-03-25T17:57:58.144Z,22.00
2019-03-25T18:00:45.249Z,28.60
2019-03-25T18:03:15.403Z,22.95
2019-03-25T18:05:44.263Z,23.30
2019-03-25T18:08:13.106Z,23.50
2019-03-25T18:10:41.918Z,26.40
2019-03-25T18:13:21.776Z,22.13
2019-03-25T18:15:41.229Z,25.57
2019-03-25T18:18:10.025Z,29.12
2019-03-25T18:20:38.800Z,24.10
2019-03-25T18:23:07.583Z,19.57
2019-03-25T18:25:36.446Z,19.30
2019-03-25T18:28:05.592Z,30.08
2019-03-25T18:30:36.200Z,22.60
2019-03-25T18:33:05.056Z,23.35
2019-03-25T18:35:33.853Z,30.97
2019-03-25T18:38:02.723Z,30.62
2019-03-25T18:40:31.590Z,25.00
2019-03-25T18:43:00.365Z,25.05
2019-03-25T18:45:29.174Z,30.00
2019-03-25T18:47:58.039Z,31.45
2019-03-25T18:50:26.877Z,26.57
2019-03-25T18:52:56.863Z,31.17
2019-03-25T18:55:26.131Z,29.12
2019-03-25T18:57:54.983Z,22.42
2019-03-25T19:00:34.722Z,21.40
2019-03-25T19:03:03.756Z,30.17
2019-03-25T19:05:32.656Z,31.05
2019-03-25T19:08:01.993Z,28.90
2019-03-25T19:10:30.831Z,27.85
2019-03-25T19:12:59.638Z,29.05
2019-03-25T19:15:28.497Z,23.18
2019-03-25T19:17:57.294Z,22.02
2019-03-25T19:20:26.148Z,23.57
2019-03-25T19:22:55.056Z,32.08
2019-03-25T19:25:23.854Z,28.70
2019-03-25T19:27:52.698Z,25.23
2019-03-25T19:30:21.579Z,27.45
2019-03-25T19:32:50.721Z,22.65
2019-03-25T19:35:19.521Z,28.40
2019-03-25T19:37:48.367Z,28.90
2019-03-25T19:40:17.188Z,27.35
2019-03-25T19:42:46.313Z,41.40
2019-03-25T19:45:15.315Z,29.27
2019-03-25T19:47:44.126Z,26.97
2019-03-25T19:50:13.655Z,24.30
2019-03-25T19:52:42.511Z,27.13
2019-03-25T19:55:11.347Z,25.27
2019-03-25T19:57:40.248Z,25.20
2019-03-25T20:00:09.840Z,31.85
2019-03-25T20:02:38.962Z,23.20
2019-03-25T20:05:08.000Z,28.80
2019-03-25T20:07:37.249Z,25.02
2019-03-25T20:10:07.659Z,27.17
2019-03-25T20:12:36.505Z,30.70
2019-03-25T20:15:06.802Z,31.82
2019-03-25T20:17:35.670Z,32.15
2019-03-25T20:20:05.959Z,37.00
2019-03-25T20:22:34.856Z,29.45
2019-03-25T20:25:05.752Z,30.32
2019-03-25T20:27:34.581Z,29.20
2019-03-25T20:30:05.674Z,30.90
2019-03-25T20:32:34.518Z,29.05
2019-03-25T20:35:03.864Z,30.12
2019-03-25T20:37:32.712Z,34.25
2019-03-25T20:40:01.526Z,32.25
2019-03-25T20:42:30.336Z,39.90
2019-03-25T20:44:59.665Z,39.70
2019-03-25T20:47:28.532Z,29.55
2019-03-25T20:49:57.483Z,38.42
2019-03-25T20:52:26.366Z,34.83
2019-03-25T20:54:55.432Z,31.35
2019-03-25T20:57:24.275Z,31.93
2019-03-25T20:59:53.060Z,35.52
2019-03-25T21:02:21.858Z,30.48
2019-03-25T21:04:50.709Z,37.85
2019-03-25T21:07:19.558Z,30.60
2019-03-25T21:09:48.370Z,33.98
2019-03-25T21:12:17.189Z,37.00
2019-03-25T21:14:46.052Z,35.15
2019-03-25T21:17:14.931Z,35.75
2019-03-25T21:19:43.697Z,31.97
2019-03-25T21:22:12.531Z,35.25
2019-03-25T21:24:41.351Z,39.88
2019-03-25T21:27:10.212Z,31.45
2019-03-25T21:29:39.151Z,33.48
2019-03-25T21:32:07.915Z,34.92
2019-03-25T21:34:36.707Z,57.35
2019-03-25T21:37:11.274Z,77.25
2019-03-25T21:39:40.162Z,89.97
2019-03-25T21:42:08.981Z,113.77
2019-03-25T21:44:37.867Z,64.87
2019-03-25T21:47:06.697Z,69.07
2019-03-25T21:49:35.591Z,80.90
2019-03-25T21:52:04.489Z,65.47
2019-03-25T21:54:33.336Z,86.82
2019-03-25T21:57:02.185Z,39.73
2019-03-25T21:59:31.105Z,54.67
2019-03-25T22:01:59.966Z,37.83
2019-03-25T22:04:28.791Z,69.27
2019-03-25T22:06:57.912Z,61.40
2019-03-25T22:09:26.678Z,53.78
2019-03-25T22:11:55.463Z,42.00
2019-03-25T22:14:24.342Z,33.00
2019-03-25T22:16:53.113Z,34.60
2019-03-25T22:19:21.888Z,26.60
2019-03-25T22:21:51.067Z,27.60
2019-03-25T22:24:20.167Z,25.82
2019-03-25T22:26:49.012Z,22.02
2019-03-25T22:29:17.884Z,25.08
2019-03-25T22:31:46.762Z,23.52
2019-03-25T22:34:15.567Z,26.75
2019-03-25T22:36:44.438Z,26.60
2019-03-25T22:39:13.509Z,27.17
2019-03-25T22:41:42.335Z,23.12
2019-03-25T22:44:11.158Z,26.40
2019-03-25T22:46:39.935Z,26.07
2019-03-25T22:49:08.703Z,27.52
2019-03-25T22:51:37.508Z,27.27
2019-03-25T22:54:06.291Z,26.07
2019-03-25T22:56:35.055Z,28.12
2019-03-25T22:59:03.846Z,24.67
2019-03-25T23:01:32.615Z,29.30
2019-03-25T23:04:01.819Z,25.23
2019-03-25T23:06:30.622Z,23.40
2019-03-25T23:08:59.407Z,18.20
2019-03-25T23:11:28.195Z,25.35
2019-03-25T23:13:57.292Z,21.85
2019-03-25T23:16:26.121Z,22.50
2019-03-25T23:18:54.968Z,20.02
2019-03-25T23:21:23.854Z,23.13
2019-03-25T23:23:52.622Z,26.12
2019-03-25T23:26:21.398Z,22.57
2019-03-25T23:28:50.206Z,19.52
2019-03-25T23:31:18.993Z,22.50
2019-03-25T23:33:52.457Z,23.83
2019-03-25T23:36:18.368Z,23.60
2019-03-25T23:38:47.257Z,23.50
2019-03-25T23:41:16.057Z,22.57
2019-03-25T23:43:44.917Z,22.85
2019-03-25T23:46:13.714Z,20.40
2019-03-25T23:51:46.647Z,25.68
2019-03-25T23:54:15.478Z,26.37
2019-03-25T23:56:44.596Z,25.25
2019-03-25T23:59:13.392Z,18.55
